createdAt,value
2023-02-21T00:04:30.167Z,74.50
2023-02-21T00:07:48.714Z,69.43
2023-02-21T00:11:09.246Z,76.78
2023-02-21T00:14:26.721Z,73.38
2023-02-21T00:17:44.579Z,77.70
2023-02-21T00:21:02.299Z,73.65
2023-02-21T00:24:19.919Z,74.95
2023-02-21T00:27:40.357Z,79.00
2023-02-21T00:30:58.580Z,73.25
2023-02-21T00:34:16.420Z,73.47
2023-02-21T00:37:34.324Z,75.80
2023-02-21T00:40:52.156Z,78.10
2023-02-21T00:44:12.432Z,75.63
2023-02-21T00:47:29.972Z,72.78
2023-02-21T00:50:47.655Z,72.32
2023-02-21T00:57:23.266Z,71.60
2023-02-21T01:04:00.449Z,78.43
2023-02-21T01:07:18.333Z,70.07
2023-02-21T01:10:36.096Z,73.10
2023-02-21T01:13:54.963Z,69.05
2023-02-21T01:17:13.632Z,68.63
2023-02-21T01:20:34.181Z,70.97
2023-02-21T01:23:52.028Z,79.00
2023-02-21T01:27:09.489Z,67.13
2023-02-21T01:30:27.740Z,77.32
2023-02-21T01:33:45.775Z,81.00
2023-02-21T01:37:09.589Z,78.95
2023-02-21T01:40:29.909Z,74.13
2023-02-21T01:43:47.873Z,76.90
2023-02-21T01:47:05.614Z,72.88
2023-02-21T01:53:43.086Z,67.03
2023-02-21T01:57:01.275Z,72.22
2023-02-21T02:00:20.780Z,69.88
2023-02-21T02:03:38.831Z,77.88
2023-02-21T02:06:58.620Z,80.35
2023-02-21T02:10:19.120Z,68.72
2023-02-21T02:13:33.279Z,74.80
2023-02-21T02:17:03.806Z,69.35
2023-02-21T02:20:25.546Z,71.68
2023-02-21T02:23:52.448Z,68.22
2023-02-21T02:27:10.580Z,77.88
2023-02-21T02:30:31.468Z,68.93
2023-02-21T02:33:49.853Z,74.78
2023-02-21T02:37:02.818Z,62.42
2023-02-21T02:40:12.351Z,71.47
2023-02-21T02:43:19.694Z,70.35
2023-02-21T02:46:27.099Z,69.15
2023-02-21T02:49:33.361Z,75.25
2023-02-21T02:52:41.912Z,67.18
2023-02-21T02:55:50.592Z,63.45
2023-02-21T02:58:58.312Z,66.65
2023-02-21T03:02:24.675Z,75.60
2023-02-21T03:05:39.763Z,58.58
2023-02-21T03:08:55.482Z,52.38
2023-02-21T03:12:04.767Z,62.38
2023-02-21T03:15:13.370Z,65.10
2023-02-21T03:18:21.998Z,68.55
2023-02-21T03:21:29.262Z,64.40
2023-02-21T03:24:38.018Z,47.50
2023-02-21T03:27:44.699Z,61.42
2023-02-21T03:30:59.761Z,57.40
2023-02-21T03:34:06.266Z,59.47
2023-02-21T03:37:13.999Z,57.95
2023-02-21T03:43:30.609Z,55.30
2023-02-21T03:46:42.330Z,51.38
2023-02-21T03:49:48.569Z,63.13
2023-02-21T03:52:55.377Z,57.45
2023-02-21T03:56:01.996Z,54.13
2023-02-21T03:59:19.386Z,65.20
2023-02-21T04:02:25.986Z,57.20
2023-02-21T04:05:31.194Z,60.88
2023-02-21T04:08:36.845Z,61.80
2023-02-21T04:11:45.728Z,55.53
2023-02-21T04:14:56.896Z,62.58
2023-02-21T04:18:02.644Z,62.17
2023-02-21T04:21:08.310Z,61.90
2023-02-21T04:24:13.574Z,60.80
2023-02-21T04:27:20.109Z,63.78
2023-02-21T04:30:33.795Z,53.05
2023-02-21T04:33:39.405Z,52.03
2023-02-21T04:36:46.092Z,56.47
2023-02-21T04:39:51.816Z,54.05
2023-02-21T04:42:57.445Z,62.08
2023-02-21T04:46:05.624Z,51.05
2023-02-21T04:49:11.600Z,62.45
2023-02-21T04:52:17.308Z,55.40
2023-02-21T04:55:22.643Z,56.88
2023-02-21T04:58:31.173Z,68.00
2023-02-21T05:01:44.217Z,68.03
2023-02-21T05:04:49.645Z,66.00
2023-02-21T05:07:55.385Z,64.32
2023-02-21T05:11:00.619Z,64.07
2023-02-21T05:14:07.262Z,63.25
2023-02-21T05:17:15.298Z,65.13
2023-02-21T05:20:21.473Z,61.95
2023-02-21T05:23:37.088Z,68.38
2023-02-21T05:26:42.446Z,58.50
2023-02-21T05:29:49.961Z,60.63
2023-02-21T05:32:57.862Z,55.20
2023-02-21T05:36:03.370Z,58.80
2023-02-21T05:39:09.191Z,56.03
2023-02-21T05:42:14.625Z,57.30
2023-02-21T05:45:20.173Z,62.25
2023-02-21T05:48:29.273Z,58.13
2023-02-21T05:51:37.597Z,59.17
2023-02-21T05:54:43.271Z,58.75
2023-02-21T05:57:49.172Z,59.42
2023-02-21T06:00:54.710Z,68.25
2023-02-21T06:04:03.136Z,59.35
2023-02-21T06:07:08.530Z,62.53
2023-02-21T06:10:14.288Z,59.13
2023-02-21T06:13:19.573Z,59.75
2023-02-21T06:16:25.123Z,63.58
2023-02-21T06:19:33.622Z,60.47
2023-02-21T06:22:39.206Z,59.65
2023-02-21T06:25:44.732Z,54.20
2023-02-21T06:28:50.672Z,58.92
2023-02-21T06:31:59.518Z,69.43
2023-02-21T06:35:07.362Z,56.72
2023-02-21T06:38:13.305Z,61.00
2023-02-21T06:41:19.093Z,55.63
2023-02-21T06:44:25.197Z,59.95
2023-02-21T06:47:30.459Z,59.88
2023-02-21T06:50:39.068Z,62.10
2023-02-21T06:53:44.479Z,63.30
2023-02-21T06:56:50.253Z,56.38
2023-02-21T06:59:55.832Z,62.20
2023-02-21T07:03:01.311Z,65.68
2023-02-21T07:06:09.402Z,64.97
2023-02-21T07:09:14.806Z,65.75
2023-02-21T07:12:20.183Z,66.55
2023-02-21T07:15:25.935Z,59.78
2023-02-21T07:18:31.183Z,64.40
2023-02-21T07:21:39.723Z,61.45
2023-02-21T07:24:45.487Z,61.65
2023-02-21T07:27:51.176Z,48.25
2023-02-21T07:30:56.750Z,53.53
2023-02-21T07:34:02.517Z,55.28
2023-02-21T07:37:10.997Z,51.25
2023-02-21T07:40:16.121Z,54.25
2023-02-21T07:43:21.433Z,51.85
2023-02-21T07:46:30.008Z,49.10
2023-02-21T07:49:35.658Z,51.08
2023-02-21T07:52:43.542Z,49.33
2023-02-21T07:55:48.861Z,53.88
2023-02-21T07:58:54.399Z,41.60
2023-02-21T08:01:59.616Z,47.53
2023-02-21T08:05:04.914Z,41.75
2023-02-21T08:08:13.585Z,54.72
2023-02-21T08:11:18.930Z,48.03
2023-02-21T08:14:24.224Z,48.08
2023-02-21T08:17:29.651Z,53.25
2023-02-21T08:20:35.646Z,49.17
2023-02-21T08:23:43.756Z,48.45
2023-02-21T08:26:49.841Z,44.80
2023-02-21T08:29:55.572Z,47.40
2023-02-21T08:33:00.778Z,51.55
2023-02-21T08:36:06.243Z,50.20
2023-02-21T08:39:15.552Z,50.42
2023-02-21T08:42:21.180Z,61.90
2023-02-21T08:45:27.228Z,56.42
2023-02-21T08:48:32.653Z,46.22
2023-02-21T08:51:38.044Z,51.08
2023-02-21T08:54:46.377Z,48.05
2023-02-21T08:57:52.540Z,49.33
2023-02-21T09:00:57.948Z,50.33
2023-02-21T09:04:03.702Z,50.70
2023-02-21T09:07:09.230Z,48.05
2023-02-21T09:10:17.048Z,50.45
2023-02-21T09:13:22.322Z,48.65
2023-02-21T09:16:28.039Z,51.72
2023-02-21T09:19:33.381Z,53.58
2023-02-21T09:22:38.710Z,45.28
2023-02-21T09:25:46.599Z,50.40
2023-02-21T09:28:52.436Z,42.95
2023-02-21T09:31:58.065Z,45.40
2023-02-21T09:35:03.536Z,47.53
2023-02-21T09:38:10.312Z,43.65
2023-02-21T09:41:19.340Z,44.13
2023-02-21T09:44:26.268Z,42.35
2023-02-21T09:47:33.967Z,46.60
2023-02-21T09:50:43.982Z,47.53
2023-02-21T09:53:51.347Z,41.15
2023-02-21T09:57:00.826Z,37.83
2023-02-21T10:00:10.063Z,37.45
2023-02-21T10:03:26.769Z,31.10
2023-02-21T10:06:37.198Z,33.67
2023-02-21T10:09:45.524Z,36.17
2023-02-21T10:12:57.592Z,34.70
2023-02-21T10:16:05.479Z,39.78
2023-02-21T10:19:15.151Z,43.55
2023-02-21T10:22:22.511Z,40.35
2023-02-21T10:25:30.130Z,42.45
2023-02-21T10:28:38.811Z,39.78
2023-02-21T10:31:45.651Z,39.58
2023-02-21T10:34:51.293Z,36.05
2023-02-21T10:37:59.718Z,41.10
2023-02-21T10:44:16.226Z,34.10
2023-02-21T10:47:23.155Z,39.17
2023-02-21T10:50:58.804Z,38.83
2023-02-21T10:54:19.036Z,38.03
2023-02-21T10:57:24.476Z,38.05
2023-02-21T11:00:35.047Z,32.22
2023-02-21T11:03:40.813Z,42.38
2023-02-21T11:06:48.542Z,37.00
2023-02-21T11:09:55.979Z,39.25
2023-02-21T11:13:08.512Z,34.67
2023-02-21T11:16:22.636Z,42.88
2023-02-21T11:19:27.816Z,33.65
2023-02-21T11:22:43.132Z,34.47
2023-02-21T11:25:48.819Z,41.55
2023-02-21T11:28:55.715Z,39.95
2023-02-21T11:32:13.142Z,34.78
2023-02-21T11:35:25.840Z,37.15
2023-02-21T11:38:36.317Z,42.53
2023-02-21T11:41:48.810Z,38.53
2023-02-21T11:45:05.349Z,39.50
2023-02-21T11:48:16.827Z,37.65
2023-02-21T11:51:28.778Z,34.28
2023-02-21T11:54:34.273Z,32.03
2023-02-21T11:57:44.030Z,40.38
2023-02-21T12:01:02.319Z,36.03
2023-02-21T12:04:15.417Z,30.63
2023-02-21T12:07:25.480Z,34.80
2023-02-21T12:10:43.689Z,34.08
2023-02-21T12:13:53.347Z,32.40
2023-02-21T12:17:02.816Z,30.92
2023-02-21T12:20:21.565Z,32.15
2023-02-21T12:23:33.918Z,29.17
2023-02-21T12:26:48.668Z,28.48
2023-02-21T12:30:00.189Z,26.55
2023-02-21T12:33:12.898Z,26.42
2023-02-21T12:36:28.081Z,28.52
2023-02-21T12:39:42.964Z,24.25
2023-02-21T12:42:53.821Z,25.23
2023-02-21T12:46:04.958Z,31.63
2023-02-21T12:49:14.093Z,28.67
2023-02-21T12:52:25.128Z,30.67
2023-02-21T12:55:34.127Z,25.50
2023-02-21T12:58:42.185Z,26.73
2023-02-21T13:01:50.458Z,26.17
2023-02-21T13:04:57.641Z,23.15
2023-02-21T13:08:09.212Z,23.10
2023-02-21T13:11:17.728Z,25.55
2023-02-21T13:14:24.459Z,28.83
2023-02-21T13:17:30.232Z,24.90
2023-02-21T13:20:38.799Z,27.38
2023-02-21T13:23:52.094Z,26.15
2023-02-21T13:27:31.449Z,28.15
2023-02-21T13:30:42.461Z,28.17
2023-02-21T13:33:53.041Z,25.65
2023-02-21T13:37:03.634Z,24.40
2023-02-21T13:40:23.663Z,22.48
2023-02-21T13:43:30.775Z,28.80
2023-02-21T13:46:51.188Z,28.73
2023-02-21T13:49:57.006Z,29.40
2023-02-21T13:53:07.169Z,31.83
2023-02-21T13:56:22.504Z,29.75
2023-02-21T13:59:35.769Z,27.65
2023-02-21T14:02:41.074Z,23.45
2023-02-21T14:06:01.122Z,28.70
2023-02-21T14:09:09.183Z,27.88
2023-02-21T14:12:19.570Z,26.85
2023-02-21T14:15:24.993Z,26.23
2023-02-21T14:18:32.180Z,30.90
2023-02-21T14:21:38.805Z,30.42
2023-02-21T14:24:45.930Z,30.60
2023-02-21T14:27:54.408Z,25.45
2023-02-21T14:31:05.251Z,30.23
2023-02-21T14:34:12.229Z,31.15
2023-02-21T14:37:19.426Z,32.25
2023-02-21T14:40:31.709Z,26.92
2023-02-21T14:43:48.714Z,29.50
2023-02-21T14:47:08.322Z,27.05
2023-02-21T14:50:24.880Z,25.63
2023-02-21T14:53:43.776Z,31.58
2023-02-21T14:56:53.624Z,33.28
2023-02-21T15:00:12.210Z,34.40
2023-02-21T15:03:20.961Z,32.90
2023-02-21T15:06:27.817Z,36.65
2023-02-21T15:09:33.188Z,36.45
2023-02-21T15:12:40.037Z,33.45
2023-02-21T15:15:48.383Z,35.90
2023-02-21T15:19:01.301Z,38.58
2023-02-21T15:22:20.376Z,36.50
2023-02-21T15:25:25.899Z,39.42
2023-02-21T15:28:32.286Z,40.45
2023-02-21T15:31:42.689Z,36.30
2023-02-21T15:34:50.330Z,32.50
2023-02-21T15:37:56.452Z,45.03
2023-02-21T15:41:04.439Z,38.22
2023-02-21T15:44:12.275Z,33.33
2023-02-21T15:47:21.459Z,36.72
2023-02-21T15:50:32.908Z,42.38
2023-02-21T15:53:38.350Z,33.65
2023-02-21T15:56:43.952Z,39.15
2023-02-21T15:59:49.577Z,36.53
2023-02-21T16:03:17.435Z,42.15
2023-02-21T16:09:30.475Z,35.33
2023-02-21T16:12:38.523Z,37.65
2023-02-21T16:15:44.118Z,35.92
2023-02-21T16:18:57.972Z,38.10
2023-02-21T16:22:26.295Z,41.08
2023-02-21T16:25:33.909Z,30.70
2023-02-21T16:28:39.857Z,36.17
2023-02-21T16:31:45.624Z,42.58
2023-02-21T16:34:55.225Z,35.45
2023-02-21T16:38:02.020Z,36.88
2023-02-21T16:41:07.383Z,32.65
2023-02-21T16:44:13.190Z,37.13
2023-02-21T16:47:20.452Z,39.05
2023-02-21T16:50:31.401Z,41.17
2023-02-21T16:53:37.259Z,37.05
2023-02-21T16:56:43.704Z,38.20
2023-02-21T16:59:49.005Z,33.85
2023-02-21T17:02:55.193Z,37.55
2023-02-21T17:06:03.822Z,43.30
2023-02-21T17:09:09.390Z,32.80
2023-02-21T17:12:15.654Z,39.83
2023-02-21T17:15:24.092Z,38.78
2023-02-21T17:18:29.750Z,36.25
2023-02-21T17:21:37.801Z,44.75
2023-02-21T17:24:42.971Z,36.63
2023-02-21T17:27:48.589Z,31.88
2023-02-21T17:30:54.169Z,36.00
2023-02-21T17:33:59.767Z,37.40
2023-02-21T17:37:09.892Z,37.45
2023-02-21T17:40:15.980Z,38.83
2023-02-21T17:43:21.541Z,34.78
2023-02-21T17:46:26.954Z,36.00
2023-02-21T17:49:32.481Z,35.42
2023-02-21T17:52:40.435Z,40.53
2023-02-21T17:55:45.779Z,37.80
2023-02-21T17:58:51.617Z,33.67
2023-02-21T18:01:57.767Z,35.35
2023-02-21T18:05:03.041Z,38.08
2023-02-21T18:08:11.981Z,35.78
2023-02-21T18:11:18.683Z,32.80
2023-02-21T18:14:25.791Z,28.80
2023-02-21T18:17:31.250Z,39.53
2023-02-21T18:20:36.708Z,38.00
2023-02-21T18:23:45.913Z,38.22
2023-02-21T18:26:51.131Z,38.17
2023-02-21T18:29:56.643Z,33.13
2023-02-21T18:33:02.346Z,40.05
2023-02-21T18:36:10.916Z,39.22
2023-02-21T18:39:20.699Z,37.10
2023-02-21T18:42:26.214Z,35.03
2023-02-21T18:45:33.315Z,35.10
2023-02-21T18:48:38.628Z,38.70
2023-02-21T18:51:44.380Z,34.05
2023-02-21T18:54:53.044Z,37.65
2023-02-21T18:57:58.878Z,34.45
2023-02-21T19:01:04.137Z,31.13
2023-02-21T19:04:09.546Z,37.00
2023-02-21T19:07:17.100Z,37.92
2023-02-21T19:10:26.728Z,34.55
2023-02-21T19:13:32.078Z,34.35
2023-02-21T19:16:37.775Z,39.53
2023-02-21T19:19:43.368Z,41.08
2023-02-21T19:22:48.958Z,35.58
2023-02-21T19:25:57.777Z,40.05
2023-02-21T19:29:03.326Z,36.85
2023-02-21T19:32:09.262Z,31.52
2023-02-21T19:35:14.422Z,36.03
2023-02-21T19:38:20.437Z,38.65
2023-02-21T19:41:29.262Z,32.70
2023-02-21T19:44:34.703Z,33.72
2023-02-21T19:47:40.177Z,35.85
2023-02-21T19:50:45.989Z,34.63
2023-02-21T19:53:51.744Z,37.30
2023-02-21T19:57:00.049Z,37.13
2023-02-21T20:03:13.342Z,30.23
2023-02-21T20:06:18.645Z,36.17
2023-02-21T20:09:24.052Z,34.10
2023-02-21T20:12:32.732Z,33.72
2023-02-21T20:15:37.977Z,38.10
2023-02-21T20:18:43.196Z,33.38
2023-02-21T20:21:48.897Z,38.97
2023-02-21T20:24:54.217Z,38.67
2023-02-21T20:28:03.366Z,37.92
2023-02-21T20:31:11.083Z,49.17
2023-02-21T20:37:21.994Z,40.22
2023-02-21T20:40:27.425Z,40.42
2023-02-21T20:43:35.672Z,37.00
2023-02-21T20:46:41.431Z,40.17
2023-02-21T20:49:46.906Z,38.55
2023-02-21T20:52:52.728Z,35.05
2023-02-21T20:55:58.527Z,41.20
2023-02-21T20:59:08.111Z,40.08
2023-02-21T21:02:13.698Z,35.13
2023-02-21T21:05:19.550Z,40.95
2023-02-21T21:08:24.786Z,33.50
2023-02-21T21:11:30.931Z,37.28
2023-02-21T21:14:41.777Z,37.90
2023-02-21T21:17:47.499Z,37.97
2023-02-21T21:20:52.774Z,40.20
2023-02-21T21:23:58.976Z,40.30
2023-02-21T21:27:08.669Z,34.20
2023-02-21T21:30:22.990Z,35.42
2023-02-21T21:33:28.326Z,45.65
2023-02-21T21:36:36.432Z,37.35
2023-02-21T21:39:42.721Z,39.50
2023-02-21T21:42:49.080Z,33.88
2023-02-21T21:45:58.886Z,38.38
2023-02-21T21:49:06.765Z,37.65
2023-02-21T21:52:13.248Z,42.13
2023-02-21T21:55:19.781Z,35.42
2023-02-21T21:58:27.153Z,39.42
2023-02-21T22:01:34.844Z,43.90
2023-02-21T22:04:40.833Z,44.08
2023-02-21T22:07:46.241Z,39.22
2023-02-21T22:10:51.488Z,34.78
2023-02-21T22:13:56.832Z,39.13
2023-02-21T22:17:05.774Z,37.95
2023-02-21T22:20:18.077Z,43.13
2023-02-21T22:23:26.044Z,36.92
2023-02-21T22:26:33.032Z,31.45
2023-02-21T22:29:38.772Z,44.27
2023-02-21T22:32:46.961Z,39.40
2023-02-21T22:35:52.391Z,35.30
2023-02-21T22:38:57.911Z,44.03
2023-02-21T22:42:05.558Z,46.60
2023-02-21T22:45:12.039Z,35.60
2023-02-21T22:48:21.220Z,46.37
2023-02-21T22:51:28.736Z,38.17
2023-02-21T22:54:35.066Z,41.03
2023-02-21T22:57:40.348Z,34.03
2023-02-21T23:00:45.898Z,33.58
2023-02-21T23:03:53.743Z,37.83
2023-02-21T23:06:59.650Z,33.92
2023-02-21T23:10:05.016Z,37.83
2023-02-21T23:13:14.371Z,36.35
2023-02-21T23:16:22.199Z,45.42
2023-02-21T23:22:35.963Z,72.68
2023-02-21T23:25:41.298Z,40.78
2023-02-21T23:28:46.796Z,38.28
2023-02-21T23:31:52.719Z,39.30
2023-02-21T23:34:57.818Z,39.15
2023-02-21T23:38:06.885Z,39.17
2023-02-21T23:41:12.676Z,40.35
2023-02-21T23:44:18.591Z,37.88
2023-02-21T23:47:24.090Z,36.38
2023-02-21T23:50:31.701Z,39.60
2023-02-21T23:53:41.184Z,35.83
2023-02-21T23:56:48.060Z,38.05
2023-02-21T23:59:53.513Z,47.92
